createdAt,value
2022-10-09T00:02:52.717Z,3.212
2022-10-09T00:18:34.916Z,3.21
2022-10-09T00:34:17.260Z,3.21
2022-10-09T00:49:59.619Z,3.21
2022-10-09T01:05:42.496Z,3.21
2022-10-09T01:21:24.593Z,3.21
2022-10-09T01:37:07.451Z,3.212
2022-10-09T01:52:49.575Z,3.212
2022-10-09T02:08:32.063Z,3.21
2022-10-09T02:24:14.888Z,3.212
2022-10-09T02:39:57.773Z,3.212
2022-10-09T02:55:40.326Z,3.21
2022-10-09T03:11:22.936Z,3.209
2022-10-09T03:27:05.544Z,3.209
2022-10-09T03:42:48.387Z,3.21
2022-10-09T03:58:31.277Z,3.21
2022-10-09T04:14:13.868Z,3.209
2022-10-09T04:29:56.928Z,3.209
2022-10-09T04:45:39.844Z,3.209
2022-10-09T05:01:22.294Z,3.209
2022-10-09T05:17:04.636Z,3.209
2022-10-09T05:32:47.596Z,3.209
2022-10-09T05:48:30.432Z,3.207
2022-10-09T06:04:13.093Z,3.209
2022-10-09T06:19:55.771Z,3.209
2022-10-09T06:35:38.358Z,3.209
2022-10-09T06:51:21.321Z,3.21
2022-10-09T07:07:04.261Z,3.21
2022-10-09T07:22:46.755Z,3.21
2022-10-09T07:38:28.944Z,3.212
2022-10-09T07:54:11.194Z,3.21
2022-10-09T08:09:53.950Z,3.228
2022-10-09T08:25:36.363Z,3.227
2022-10-09T08:41:19.142Z,3.236
2022-10-09T08:57:01.957Z,3.238
2022-10-09T09:12:44.931Z,3.239
2022-10-09T09:28:27.414Z,3.232
2022-10-09T09:44:09.652Z,3.243
2022-10-09T09:59:52.018Z,3.27
2022-10-09T10:15:34.246Z,3.402
2022-10-09T10:31:16.620Z,3.362
2022-10-09T10:46:59.181Z,3.346
2022-10-09T11:02:42.039Z,3.332
2022-10-09T11:18:24.809Z,3.307
2022-10-09T11:34:07.782Z,3.297
2022-10-09T11:49:50.473Z,3.289
2022-10-09T11:50:37.686Z,3.279
2022-10-09T12:06:20.361Z,3.278
2022-10-09T12:22:02.536Z,3.271
2022-10-09T12:37:44.909Z,3.265
2022-10-09T12:53:27.580Z,3.261
2022-10-09T13:09:09.578Z,3.257
2022-10-09T13:24:51.628Z,3.253
2022-10-09T13:40:34.403Z,3.249
2022-10-09T13:56:17.074Z,3.246
2022-10-09T14:11:59.061Z,3.243
2022-10-09T14:27:41.026Z,3.467
2022-10-09T14:43:23.255Z,3.434
2022-10-09T14:59:05.416Z,3.412
2022-10-09T15:14:48.169Z,3.394
2022-10-09T15:30:31.055Z,3.377
2022-10-09T15:46:13.302Z,3.362
2022-10-09T16:01:56.000Z,3.348
2022-10-09T16:17:38.841Z,3.336
2022-10-09T16:33:21.483Z,3.311
2022-10-09T16:49:03.966Z,3.3
2022-10-09T17:04:46.086Z,3.292
2022-10-09T17:20:28.943Z,3.283
2022-10-09T17:36:11.256Z,3.276
2022-10-09T17:51:53.666Z,3.27
2022-10-09T18:07:36.168Z,3.263
2022-10-09T18:23:19.065Z,3.257
2022-10-09T18:39:01.314Z,3.253
2022-10-09T18:54:43.670Z,3.249
2022-10-09T19:10:26.343Z,3.243
2022-10-09T19:26:08.872Z,3.241
2022-10-09T19:41:51.815Z,3.236
2022-10-09T19:57:34.071Z,3.235
2022-10-09T20:13:17.057Z,3.232
2022-10-09T20:28:59.845Z,3.228
2022-10-09T20:44:42.074Z,3.227
2022-10-09T21:00:24.799Z,3.225
2022-10-09T21:16:07.054Z,3.224
2022-10-09T21:31:49.868Z,3.216
2022-10-09T21:47:32.427Z,3.216
2022-10-09T22:03:15.368Z,3.214
2022-10-09T22:18:57.723Z,3.213
2022-10-09T22:34:40.747Z,3.213
2022-10-09T22:50:23.511Z,3.212
2022-10-09T23:06:05.825Z,3.21
2022-10-09T23:21:48.124Z,3.21
2022-10-09T23:37:30.249Z,3.209
2022-10-09T23:53:12.668Z,3.209
